sensor_id;sensor_type;location;lat;lon;timestamp;temperature;humidity
41722;DHT22;27407;24.142;-110.310;2023-03-14T00:01:23;36.80;45.50
41722;DHT22;27407;24.142;-110.310;2023-03-14T00:03:50;35.00;46.30
41722;DHT22;27407;24.142;-110.310;2023-03-14T00:06:17;33.40;44.80
41722;DHT22;27407;24.142;-110.310;2023-03-14T00:09:07;36.10;46.80
41722;DHT22;27407;24.142;-110.310;2023-03-14T00:11:40;36.30;47.10
41722;DHT22;27407;24.142;-110.310;2023-03-14T00:14:07;36.80;46.60
41722;DHT22;27407;24.142;-110.310;2023-03-14T00:16:34;35.90;47.20
41722;DHT22;27407;24.142;-110.310;2023-03-14T00:19:00;36.50;47.20
41722;DHT22;27407;24.142;-110.310;2023-03-14T00:21:27;36.60;46.90
41722;DHT22;27407;24.142;-110.310;2023-03-14T00:23:54;36.30;46.80
41722;DHT22;27407;24.142;-110.310;2023-03-14T00:26:22;35.20;48.50
41722;DHT22;27407;24.142;-110.310;2023-03-14T00:29:01;35.10;48.40
41722;DHT22;27407;24.142;-110.310;2023-03-14T00:31:37;34.20;49.40
41722;DHT22;27407;24.142;-110.310;2023-03-14T00:34:29;33.80;49.50
41722;DHT22;27407;24.142;-110.310;2023-03-14T00:40:13;34.90;49.00
41722;DHT22;27407;24.142;-110.310;2023-03-14T00:42:46;34.90;48.40
41722;DHT22;27407;24.142;-110.310;2023-03-14T00:45:22;34.90;47.70
41722;DHT22;27407;24.142;-110.310;2023-03-14T00:48:06;34.70;47.90
41722;DHT22;27407;24.142;-110.310;2023-03-14T00:50:33;34.70;47.90
41722;DHT22;27407;24.142;-110.310;2023-03-14T00:53:21;34.70;47.20
41722;DHT22;27407;24.142;-110.310;2023-03-14T00:56:07;34.20;47.50
41722;DHT22;27407;24.142;-110.310;2023-03-14T00:59:07;33.00;57.80
41722;DHT22;27407;24.142;-110.310;2023-03-14T01:01:39;33.00;56.20
41722;DHT22;27407;24.142;-110.310;2023-03-14T01:04:16;32.70;59.10
41722;DHT22;27407;24.142;-110.310;2023-03-14T01:07:09;32.10;63.90
41722;DHT22;27407;24.142;-110.310;2023-03-14T01:09:39;31.50;62.90
41722;DHT22;27407;24.142;-110.310;2023-03-14T01:12:12;31.70;63.10
41722;DHT22;27407;24.142;-110.310;2023-03-14T01:14:45;31.60;64.00
41722;DHT22;27407;24.142;-110.310;2023-03-14T01:17:18;31.10;59.20
41722;DHT22;27407;24.142;-110.310;2023-03-14T01:19:50;30.80;54.40
41722;DHT22;27407;24.142;-110.310;2023-03-14T01:22:16;29.70;53.20
41722;DHT22;27407;24.142;-110.310;2023-03-14T01:27:33;29.50;55.10
41722;DHT22;27407;24.142;-110.310;2023-03-14T01:30:03;29.20;56.30
41722;DHT22;27407;24.142;-110.310;2023-03-14T01:43:13;27.80;59.60
41722;DHT22;27407;24.142;-110.310;2023-03-14T01:51:38;27.20;60.80
41722;DHT22;27407;24.142;-110.310;2023-03-14T01:57:32;27.10;61.20
41722;DHT22;27407;24.142;-110.310;2023-03-14T02:00:25;26.90;61.50
41722;DHT22;27407;24.142;-110.310;2023-03-14T02:02:58;28.00;62.90
41722;DHT22;27407;24.142;-110.310;2023-03-14T02:05:30;26.30;62.10
41722;DHT22;27407;24.142;-110.310;2023-03-14T02:08:26;26.50;62.60
41722;DHT22;27407;24.142;-110.310;2023-03-14T02:10:57;26.60;63.10
41722;DHT22;27407;24.142;-110.310;2023-03-14T02:13:27;26.50;63.10
41722;DHT22;27407;24.142;-110.310;2023-03-14T02:15:53;26.50;63.40
41722;DHT22;27407;24.142;-110.310;2023-03-14T02:18:20;26.40;63.80
41722;DHT22;27407;24.142;-110.310;2023-03-14T02:20:56;26.30;63.90
41722;DHT22;27407;24.142;-110.310;2023-03-14T02:23:37;26.20;64.00
41722;DHT22;27407;24.142;-110.310;2023-03-14T02:26:10;26.00;64.50
41722;DHT22;27407;24.142;-110.310;2023-03-14T02:28:38;25.20;64.10
41722;DHT22;27407;24.142;-110.310;2023-03-14T02:31:05;25.80;64.70
41722;DHT22;27407;24.142;-110.310;2023-03-14T02:33:32;25.60;64.50
41722;DHT22;27407;24.142;-110.310;2023-03-14T02:36:18;25.70;64.80
41722;DHT22;27407;24.142;-110.310;2023-03-14T02:39:14;25.80;65.10
41722;DHT22;27407;24.142;-110.310;2023-03-14T02:41:42;25.80;65.40
41722;DHT22;27407;24.142;-110.310;2023-03-14T02:46:37;25.60;65.20
41722;DHT22;27407;24.142;-110.310;2023-03-14T02:49:08;25.70;66.00
41722;DHT22;27407;24.142;-110.310;2023-03-14T02:51:37;25.40;65.30
41722;DHT22;27407;24.142;-110.310;2023-03-14T02:54:04;25.10;65.10
41722;DHT22;27407;24.142;-110.310;2023-03-14T02:56:31;25.40;64.80
41722;DHT22;27407;24.142;-110.310;2023-03-14T02:58:57;25.50;64.60
41722;DHT22;27407;24.142;-110.310;2023-03-14T03:01:24;25.40;64.50
41722;DHT22;27407;24.142;-110.310;2023-03-14T03:03:51;25.50;64.60
41722;DHT22;27407;24.142;-110.310;2023-03-14T03:11:11;25.20;65.30
41722;DHT22;27407;24.142;-110.310;2023-03-14T03:13:38;25.50;65.20
41722;DHT22;27407;24.142;-110.310;2023-03-14T03:16:05;25.30;65.00
41722;DHT22;27407;24.142;-110.310;2023-03-14T03:21:02;25.10;66.00
41722;DHT22;27407;24.142;-110.310;2023-03-14T03:23:30;25.00;65.40
41722;DHT22;27407;24.142;-110.310;2023-03-14T03:33:16;24.60;67.80
41722;DHT22;27407;24.142;-110.310;2023-03-14T03:35:48;24.50;67.90
41722;DHT22;27407;24.142;-110.310;2023-03-14T03:38:15;24.20;67.90
41722;DHT22;27407;24.142;-110.310;2023-03-14T03:40:42;23.50;67.80
41722;DHT22;27407;24.142;-110.310;2023-03-14T03:43:09;24.30;68.50
41722;DHT22;27407;24.142;-110.310;2023-03-14T03:45:36;24.10;68.90
41722;DHT22;27407;24.142;-110.310;2023-03-14T03:48:02;23.90;69.60
41722;DHT22;27407;24.142;-110.310;2023-03-14T03:52:56;23.90;71.40
41722;DHT22;27407;24.142;-110.310;2023-03-14T03:55:22;23.90;72.10
41722;DHT22;27407;24.142;-110.310;2023-03-14T03:57:49;23.90;71.70
41722;DHT22;27407;24.142;-110.310;2023-03-14T04:00:16;23.90;71.90
41722;DHT22;27407;24.142;-110.310;2023-03-14T04:05:10;23.50;74.20
41722;DHT22;27407;24.142;-110.310;2023-03-14T04:07:36;23.30;73.60
41722;DHT22;27407;24.142;-110.310;2023-03-14T04:10:04;23.60;74.90
41722;DHT22;27407;24.142;-110.310;2023-03-14T04:17:24;23.70;80.10
41722;DHT22;27407;24.142;-110.310;2023-03-14T04:19:50;23.70;81.80
41722;DHT22;27407;24.142;-110.310;2023-03-14T04:22:20;23.60;83.20
41722;DHT22;27407;24.142;-110.310;2023-03-14T04:29:41;23.30;79.60
41722;DHT22;27407;24.142;-110.310;2023-03-14T04:32:08;23.30;76.50
41722;DHT22;27407;24.142;-110.310;2023-03-14T04:34:35;23.30;74.30
41722;DHT22;27407;24.142;-110.310;2023-03-14T04:37:02;23.00;74.50
41722;DHT22;27407;24.142;-110.310;2023-03-14T04:49:15;22.60;72.50
41722;DHT22;27407;24.142;-110.310;2023-03-14T04:54:08;23.00;73.10
41722;DHT22;27407;24.142;-110.310;2023-03-14T04:56:35;23.10;72.00
41722;DHT22;27407;24.142;-110.310;2023-03-14T04:59:03;22.90;71.60
41722;DHT22;27407;24.142;-110.310;2023-03-14T05:01:30;24.20;72.80
41722;DHT22;27407;24.142;-110.310;2023-03-14T05:06:23;23.50;74.30
41722;DHT22;27407;24.142;-110.310;2023-03-14T05:11:16;22.50;74.20
41722;DHT22;27407;24.142;-110.310;2023-03-14T05:13:44;22.20;74.20
41722;DHT22;27407;24.142;-110.310;2023-03-14T05:16:11;22.60;73.30
41722;DHT22;27407;24.142;-110.310;2023-03-14T05:18:38;22.50;74.00
41722;DHT22;27407;24.142;-110.310;2023-03-14T05:21:05;22.30;74.10
41722;DHT22;27407;24.142;-110.310;2023-03-14T05:28:28;22.30;72.80
41722;DHT22;27407;24.142;-110.310;2023-03-14T05:33:21;22.40;73.70
41722;DHT22;27407;24.142;-110.310;2023-03-14T05:38:14;22.40;74.10
41722;DHT22;27407;24.142;-110.310;2023-03-14T05:45:35;22.90;74.30
41722;DHT22;27407;24.142;-110.310;2023-03-14T05:48:01;22.20;74.60
41722;DHT22;27407;24.142;-110.310;2023-03-14T05:52:55;22.10;75.50
41722;DHT22;27407;24.142;-110.310;2023-03-14T05:55:25;21.00;75.20
41722;DHT22;27407;24.142;-110.310;2023-03-14T05:57:53;22.30;75.90
41722;DHT22;27407;24.142;-110.310;2023-03-14T06:00:20;21.80;75.60
41722;DHT22;27407;24.142;-110.310;2023-03-14T06:05:13;22.00;76.90
41722;DHT22;27407;24.142;-110.310;2023-03-14T06:10:07;22.00;77.00
41722;DHT22;27407;24.142;-110.310;2023-03-14T06:24:47;22.10;77.20
41722;DHT22;27407;24.142;-110.310;2023-03-14T06:32:07;21.80;78.00
41722;DHT22;27407;24.142;-110.310;2023-03-14T06:39:28;21.20;78.20
41722;DHT22;27407;24.142;-110.310;2023-03-14T06:44:21;21.80;78.90
41722;DHT22;27407;24.142;-110.310;2023-03-14T06:46:48;21.70;79.10
41722;DHT22;27407;24.142;-110.310;2023-03-14T06:51:41;21.30;80.20
41722;DHT22;27407;24.142;-110.310;2023-03-14T06:59:01;21.60;81.50
41722;DHT22;27407;24.142;-110.310;2023-03-14T07:01:30;21.50;81.20
41722;DHT22;27407;24.142;-110.310;2023-03-14T07:03:59;21.40;81.00
41722;DHT22;27407;24.142;-110.310;2023-03-14T07:06:33;22.40;80.50
41722;DHT22;27407;24.142;-110.310;2023-03-14T07:18:47;21.70;78.70
41722;DHT22;27407;24.142;-110.310;2023-03-14T07:21:15;21.50;79.90
41722;DHT22;27407;24.142;-110.310;2023-03-14T07:23:42;21.30;81.30
41722;DHT22;27407;24.142;-110.310;2023-03-14T07:26:08;21.10;81.60
41722;DHT22;27407;24.142;-110.310;2023-03-14T07:35:55;20.60;83.40
41722;DHT22;27407;24.142;-110.310;2023-03-14T07:38:22;20.70;83.50
41722;DHT22;27407;24.142;-110.310;2023-03-14T07:43:15;20.40;84.50
41722;DHT22;27407;24.142;-110.310;2023-03-14T07:45:46;20.20;85.10
41722;DHT22;27407;24.142;-110.310;2023-03-14T08:00:26;19.30;86.80
41722;DHT22;27407;24.142;-110.310;2023-03-14T08:07:46;19.60;87.00
41722;DHT22;27407;24.142;-110.310;2023-03-14T08:10:13;19.40;87.80
41722;DHT22;27407;24.142;-110.310;2023-03-14T08:12:46;20.00;88.20
41722;DHT22;27407;24.142;-110.310;2023-03-14T08:20:07;19.50;89.20
41722;DHT22;27407;24.142;-110.310;2023-03-14T08:29:54;20.00;89.30
41722;DHT22;27407;24.142;-110.310;2023-03-14T08:34:49;19.50;87.90
41722;DHT22;27407;24.142;-110.310;2023-03-14T08:54:25;19.00;89.70
41722;DHT22;27407;24.142;-110.310;2023-03-14T09:04:19;19.10;91.60
41722;DHT22;27407;24.142;-110.310;2023-03-14T09:06:45;18.90;91.70
41722;DHT22;27407;24.142;-110.310;2023-03-14T09:11:40;18.70;92.40
41722;DHT22;27407;24.142;-110.310;2023-03-14T09:14:06;18.80;92.70
41722;DHT22;27407;24.142;-110.310;2023-03-14T09:16:34;19.90;93.30
41722;DHT22;27407;24.142;-110.310;2023-03-14T09:21:28;18.70;94.60
41722;DHT22;27407;24.142;-110.310;2023-03-14T09:28:48;18.70;95.10
41722;DHT22;27407;24.142;-110.310;2023-03-14T09:31:15;18.60;95.50
41722;DHT22;27407;24.142;-110.310;2023-03-14T09:36:08;18.70;95.70
41722;DHT22;27407;24.142;-110.310;2023-03-14T09:41:09;18.70;95.30
41722;DHT22;27407;24.142;-110.310;2023-03-14T09:43:39;18.60;95.40
41722;DHT22;27407;24.142;-110.310;2023-03-14T09:46:08;21.40;97.60
41722;DHT22;27407;24.142;-110.310;2023-03-14T09:51:06;18.60;95.50
41722;DHT22;27407;24.142;-110.310;2023-03-14T09:53:42;18.50;95.60
41722;DHT22;27407;24.142;-110.310;2023-03-14T09:56:31;18.50;95.60
41722;DHT22;27407;24.142;-110.310;2023-03-14T09:59:00;17.20;94.40
41722;DHT22;27407;24.142;-110.310;2023-03-14T10:01:31;18.30;94.40
41722;DHT22;27407;24.142;-110.310;2023-03-14T10:04:22;18.40;94.80
41722;DHT22;27407;24.142;-110.310;2023-03-14T10:06:49;18.30;94.70
41722;DHT22;27407;24.142;-110.310;2023-03-14T10:09:20;18.20;94.90
41722;DHT22;27407;24.142;-110.310;2023-03-14T10:11:58;18.20;95.40
41722;DHT22;27407;24.142;-110.310;2023-03-14T10:14:33;17.20;94.60
41722;DHT22;27407;24.142;-110.310;2023-03-14T10:17:12;18.40;93.70
41722;DHT22;27407;24.142;-110.310;2023-03-14T10:20:02;19.50;95.60
41722;DHT22;27407;24.142;-110.310;2023-03-14T10:22:32;18.20;96.00
41722;DHT22;27407;24.142;-110.310;2023-03-14T10:25:04;18.30;97.60
41722;DHT22;27407;24.142;-110.310;2023-03-14T10:27:35;18.20;97.90
41722;DHT22;27407;24.142;-110.310;2023-03-14T10:30:06;17.90;98.60
41722;DHT22;27407;24.142;-110.310;2023-03-14T10:32:38;18.10;98.60
41722;DHT22;27407;24.142;-110.310;2023-03-14T10:37:34;18.00;99.70
41722;DHT22;27407;24.142;-110.310;2023-03-14T10:40:02;18.10;99.90
41722;DHT22;27407;24.142;-110.310;2023-03-14T10:42:33;18.10;99.90
41722;DHT22;27407;24.142;-110.310;2023-03-14T10:45:05;18.10;99.90
41722;DHT22;27407;24.142;-110.310;2023-03-14T10:50:25;18.00;99.90
41722;DHT22;27407;24.142;-110.310;2023-03-14T10:52:53;18.00;99.90
41722;DHT22;27407;24.142;-110.310;2023-03-14T10:55:22;18.20;99.90
41722;DHT22;27407;24.142;-110.310;2023-03-14T10:57:50;18.60;99.90
41722;DHT22;27407;24.142;-110.310;2023-03-14T11:00:22;17.30;99.90
41722;DHT22;27407;24.142;-110.310;2023-03-14T11:08:02;18.00;99.90
41722;DHT22;27407;24.142;-110.310;2023-03-14T11:27:41;18.70;91.50
41722;DHT22;27407;24.142;-110.310;2023-03-14T11:30:30;19.30;90.10
41722;DHT22;27407;24.142;-110.310;2023-03-14T11:33:11;19.50;88.40
41722;DHT22;27407;24.142;-110.310;2023-03-14T11:40:57;20.00;84.60
41722;DHT22;27407;24.142;-110.310;2023-03-14T11:45:56;20.00;84.10
41722;DHT22;27407;24.142;-110.310;2023-03-14T11:51:26;19.80;84.20
41722;DHT22;27407;24.142;-110.310;2023-03-14T11:54:02;20.10;84.40
41722;DHT22;27407;24.142;-110.310;2023-03-14T11:56:57;19.60;84.10
41722;DHT22;27407;24.142;-110.310;2023-03-14T12:07:31;19.40;84.10
41722;DHT22;27407;24.142;-110.310;2023-03-14T12:10:02;19.60;84.00
41722;DHT22;27407;24.142;-110.310;2023-03-14T12:12:31;20.20;84.60
41722;DHT22;27407;24.142;-110.310;2023-03-14T12:14:59;19.60;89.60
41722;DHT22;27407;24.142;-110.310;2023-03-14T12:17:40;19.10;92.00
41722;DHT22;27407;24.142;-110.310;2023-03-14T12:20:17;18.90;94.10
41722;DHT22;27407;24.142;-110.310;2023-03-14T12:25:31;18.50;97.50
41722;DHT22;27407;24.142;-110.310;2023-03-14T12:30:43;17.00;98.90
41722;DHT22;27407;24.142;-110.310;2023-03-14T12:35:50;17.90;99.90
41722;DHT22;27407;24.142;-110.310;2023-03-14T12:41:19;17.60;99.90
41722;DHT22;27407;24.142;-110.310;2023-03-14T12:43:47;17.60;99.90
41722;DHT22;27407;24.142;-110.310;2023-03-14T12:48:54;17.30;99.90
41722;DHT22;27407;24.142;-110.310;2023-03-14T12:59:45;17.10;99.90
41722;DHT22;27407;24.142;-110.310;2023-03-14T13:02:41;17.10;99.90
41722;DHT22;27407;24.142;-110.310;2023-03-14T13:05:16;17.00;99.90
41722;DHT22;27407;24.142;-110.310;2023-03-14T13:17:48;17.70;99.90
41722;DHT22;27407;24.142;-110.310;2023-03-14T13:20:24;16.80;99.90
41722;DHT22;27407;24.142;-110.310;2023-03-14T13:22:53;16.80;99.90
41722;DHT22;27407;24.142;-110.310;2023-03-14T13:27:51;16.70;99.90
41722;DHT22;27407;24.142;-110.310;2023-03-14T13:30:27;16.60;99.90
41722;DHT22;27407;24.142;-110.310;2023-03-14T13:32:55;17.00;99.90
41722;DHT22;27407;24.142;-110.310;2023-03-14T13:37:57;16.60;99.90
41722;DHT22;27407;24.142;-110.310;2023-03-14T13:40:33;16.60;99.90
41722;DHT22;27407;24.142;-110.310;2023-03-14T13:43:23;16.50;99.90
41722;DHT22;27407;24.142;-110.310;2023-03-14T13:45:54;16.50;99.90
41722;DHT22;27407;24.142;-110.310;2023-03-14T13:48:25;16.30;99.90
41722;DHT22;27407;24.142;-110.310;2023-03-14T13:51:13;16.40;99.90
41722;DHT22;27407;24.142;-110.310;2023-03-14T13:53:49;16.10;99.90
41722;DHT22;27407;24.142;-110.310;2023-03-14T13:56:18;16.70;99.90
41722;DHT22;27407;24.142;-110.310;2023-03-14T14:01:40;16.80;99.90
41722;DHT22;27407;24.142;-110.310;2023-03-14T14:04:08;17.00;99.90
41722;DHT22;27407;24.142;-110.310;2023-03-14T14:06:55;17.70;99.90
41722;DHT22;27407;24.142;-110.310;2023-03-14T14:09:54;16.90;99.90
41722;DHT22;27407;24.142;-110.310;2023-03-14T14:12:32;17.50;99.90
41722;DHT22;27407;24.142;-110.310;2023-03-14T14:15:22;17.50;99.90
41722;DHT22;27407;24.142;-110.310;2023-03-14T14:22:50;18.20;99.90
41722;DHT22;27407;24.142;-110.310;2023-03-14T14:25:17;17.80;99.90
41722;DHT22;27407;24.142;-110.310;2023-03-14T14:27:48;18.10;99.90
41722;DHT22;27407;24.142;-110.310;2023-03-14T14:32:47;18.20;99.90
41722;DHT22;27407;24.142;-110.310;2023-03-14T14:35:26;18.50;99.90
41722;DHT22;27407;24.142;-110.310;2023-03-14T14:40:28;18.80;99.90
41722;DHT22;27407;24.142;-110.310;2023-03-14T14:43:03;19.80;99.90
41722;DHT22;27407;24.142;-110.310;2023-03-14T14:45:30;19.10;99.90
41722;DHT22;27407;24.142;-110.310;2023-03-14T14:48:06;19.40;99.90
41722;DHT22;27407;24.142;-110.310;2023-03-14T14:50:39;19.60;99.90
41722;DHT22;27407;24.142;-110.310;2023-03-14T14:53:43;19.90;99.60
41722;DHT22;27407;24.142;-110.310;2023-03-14T14:56:25;20.90;89.00
41722;DHT22;27407;24.142;-110.310;2023-03-14T14:58:58;21.40;82.70
41722;DHT22;27407;24.142;-110.310;2023-03-14T15:01:38;21.80;79.20
41722;DHT22;27407;24.142;-110.310;2023-03-14T15:04:12;22.40;77.00
41722;DHT22;27407;24.142;-110.310;2023-03-14T15:06:45;22.90;75.00
41722;DHT22;27407;24.142;-110.310;2023-03-14T15:09:13;23.10;73.60
41722;DHT22;27407;24.142;-110.310;2023-03-14T15:11:39;23.40;72.70
41722;DHT22;27407;24.142;-110.310;2023-03-14T15:16:33;23.80;70.50
41722;DHT22;27407;24.142;-110.310;2023-03-14T15:19:01;22.50;71.10
41722;DHT22;27407;24.142;-110.310;2023-03-14T15:21:32;24.10;70.20
41722;DHT22;27407;24.142;-110.310;2023-03-14T15:26:27;24.30;68.90
41722;DHT22;27407;24.142;-110.310;2023-03-14T15:28:55;23.30;68.90
41722;DHT22;27407;24.142;-110.310;2023-03-14T15:31:22;24.50;69.50
41722;DHT22;27407;24.142;-110.310;2023-03-14T15:33:49;24.70;67.40
41722;DHT22;27407;24.142;-110.310;2023-03-14T15:36:29;24.80;65.20
41722;DHT22;27407;24.142;-110.310;2023-03-14T15:38:57;24.60;65.30
41722;DHT22;27407;24.142;-110.310;2023-03-14T15:41:26;25.10;65.70
41722;DHT22;27407;24.142;-110.310;2023-03-14T15:43:53;25.20;65.10
41722;DHT22;27407;24.142;-110.310;2023-03-14T15:46:23;25.40;63.40
41722;DHT22;27407;24.142;-110.310;2023-03-14T15:49:16;25.40;63.60
41722;DHT22;27407;24.142;-110.310;2023-03-14T15:51:49;25.60;62.90
41722;DHT22;27407;24.142;-110.310;2023-03-14T15:54:16;26.20;63.40
41722;DHT22;27407;24.142;-110.310;2023-03-14T15:56:42;25.90;61.60
41722;DHT22;27407;24.142;-110.310;2023-03-14T15:59:15;25.90;61.30
41722;DHT22;27407;24.142;-110.310;2023-03-14T16:01:44;26.40;63.10
41722;DHT22;27407;24.142;-110.310;2023-03-14T16:06:52;26.30;60.50
41722;DHT22;27407;24.142;-110.310;2023-03-14T16:09:18;28.50;64.30
41722;DHT22;27407;24.142;-110.310;2023-03-14T16:11:53;26.60;60.70
41722;DHT22;27407;24.142;-110.310;2023-03-14T16:14:19;26.80;60.30
41722;DHT22;27407;24.142;-110.310;2023-03-14T16:21:43;26.50;57.20
41722;DHT22;27407;24.142;-110.310;2023-03-14T16:26:37;27.20;58.50
41722;DHT22;27407;24.142;-110.310;2023-03-14T16:29:03;27.30;58.40
41722;DHT22;27407;24.142;-110.310;2023-03-14T16:31:33;27.30;57.90
41722;DHT22;27407;24.142;-110.310;2023-03-14T16:34:02;27.60;57.20
41722;DHT22;27407;24.142;-110.310;2023-03-14T16:36:29;27.70;56.40
41722;DHT22;27407;24.142;-110.310;2023-03-14T16:41:23;27.80;56.30
41722;DHT22;27407;24.142;-110.310;2023-03-14T16:46:19;28.10;55.70
41722;DHT22;27407;24.142;-110.310;2023-03-14T16:48:47;27.80;54.60
41722;DHT22;27407;24.142;-110.310;2023-03-14T16:51:14;28.30;54.50
41722;DHT22;27407;24.142;-110.310;2023-03-14T16:53:42;28.30;55.20
41722;DHT22;27407;24.142;-110.310;2023-03-14T16:56:09;28.50;53.70
41722;DHT22;27407;24.142;-110.310;2023-03-14T16:58:36;28.50;53.60
41722;DHT22;27407;24.142;-110.310;2023-03-14T17:01:07;28.60;53.80
41722;DHT22;27407;24.142;-110.310;2023-03-14T17:03:42;28.10;53.40
41722;DHT22;27407;24.142;-110.310;2023-03-14T17:06:33;28.90;53.60
41722;DHT22;27407;24.142;-110.310;2023-03-14T17:09:18;29.00;53.00
41722;DHT22;27407;24.142;-110.310;2023-03-14T17:19:05;30.10;54.10
41722;DHT22;27407;24.142;-110.310;2023-03-14T17:21:32;29.50;51.90
41722;DHT22;27407;24.142;-110.310;2023-03-14T17:26:25;30.00;52.40
41722;DHT22;27407;24.142;-110.310;2023-03-14T17:28:52;29.90;51.50
41722;DHT22;27407;24.142;-110.310;2023-03-14T17:31:19;30.00;51.20
41722;DHT22;27407;24.142;-110.310;2023-03-14T17:33:47;29.70;50.30
41722;DHT22;27407;24.142;-110.310;2023-03-14T17:36:17;29.90;51.30
41722;DHT22;27407;24.142;-110.310;2023-03-14T17:38:44;30.20;50.90
41722;DHT22;27407;24.142;-110.310;2023-03-14T17:41:13;30.30;50.40
41722;DHT22;27407;24.142;-110.310;2023-03-14T17:43:48;29.90;49.90
41722;DHT22;27407;24.142;-110.310;2023-03-14T17:46:15;30.50;49.70
41722;DHT22;27407;24.142;-110.310;2023-03-14T17:48:55;30.50;49.80
41722;DHT22;27407;24.142;-110.310;2023-03-14T17:51:22;30.70;48.80
41722;DHT22;27407;24.142;-110.310;2023-03-14T17:56:19;30.70;48.50
41722;DHT22;27407;24.142;-110.310;2023-03-14T18:01:15;30.20;48.10
41722;DHT22;27407;24.142;-110.310;2023-03-14T18:06:11;31.00;48.30
41722;DHT22;27407;24.142;-110.310;2023-03-14T18:08:40;31.00;48.50
41722;DHT22;27407;24.142;-110.310;2023-03-14T18:11:09;31.40;50.50
41722;DHT22;27407;24.142;-110.310;2023-03-14T18:13:36;31.40;49.00
41722;DHT22;27407;24.142;-110.310;2023-03-14T18:16:07;31.20;47.90
41722;DHT22;27407;24.142;-110.310;2023-03-14T18:18:34;31.70;48.20
41722;DHT22;27407;24.142;-110.310;2023-03-14T18:23:27;32.00;47.70
41722;DHT22;27407;24.142;-110.310;2023-03-14T18:25:54;32.00;47.80
41722;DHT22;27407;24.142;-110.310;2023-03-14T18:28:20;31.70;52.30
41722;DHT22;27407;24.142;-110.310;2023-03-14T18:30:48;31.80;47.60
41722;DHT22;27407;24.142;-110.310;2023-03-14T18:33:26;32.00;45.90
41722;DHT22;27407;24.142;-110.310;2023-03-14T18:35:53;32.00;47.70
41722;DHT22;27407;24.142;-110.310;2023-03-14T18:38:20;32.30;47.20
41722;DHT22;27407;24.142;-110.310;2023-03-14T18:40:46;32.60;46.80
41722;DHT22;27407;24.142;-110.310;2023-03-14T18:43:17;32.30;45.90
41722;DHT22;27407;24.142;-110.310;2023-03-14T18:45:44;32.60;46.30
41722;DHT22;27407;24.142;-110.310;2023-03-14T18:48:11;32.10;45.80
41722;DHT22;27407;24.142;-110.310;2023-03-14T18:53:05;33.30;45.80
41722;DHT22;27407;24.142;-110.310;2023-03-14T18:55:31;33.10;45.70
41722;DHT22;27407;24.142;-110.310;2023-03-14T18:57:59;33.30;45.00
41722;DHT22;27407;24.142;-110.310;2023-03-14T19:00:26;33.00;46.10
41722;DHT22;27407;24.142;-110.310;2023-03-14T19:02:53;33.50;44.90
41722;DHT22;27407;24.142;-110.310;2023-03-14T19:07:46;33.50;43.90
41722;DHT22;27407;24.142;-110.310;2023-03-14T19:10:13;33.50;44.20
41722;DHT22;27407;24.142;-110.310;2023-03-14T19:12:43;33.60;44.20
41722;DHT22;27407;24.142;-110.310;2023-03-14T19:15:10;33.80;43.90
41722;DHT22;27407;24.142;-110.310;2023-03-14T19:17:37;34.40;44.00
41722;DHT22;27407;24.142;-110.310;2023-03-14T19:20:19;34.70;42.70
41722;DHT22;27407;24.142;-110.310;2023-03-14T19:22:46;35.60;44.00
41722;DHT22;27407;24.142;-110.310;2023-03-14T19:25:20;34.00;42.50
41722;DHT22;27407;24.142;-110.310;2023-03-14T19:27:47;34.80;42.30
41722;DHT22;27407;24.142;-110.310;2023-03-14T19:30:16;34.80;41.40
41722;DHT22;27407;24.142;-110.310;2023-03-14T19:32:48;34.70;41.20
41722;DHT22;27407;24.142;-110.310;2023-03-14T19:35:15;35.00;41.10
41722;DHT22;27407;24.142;-110.310;2023-03-14T19:40:11;34.90;41.30
41722;DHT22;27407;24.142;-110.310;2023-03-14T19:42:38;34.60;42.10
41722;DHT22;27407;24.142;-110.310;2023-03-14T19:45:05;34.80;42.20
41722;DHT22;27407;24.142;-110.310;2023-03-14T19:47:32;35.20;42.30
41722;DHT22;27407;24.142;-110.310;2023-03-14T19:59:46;34.80;41.20
41722;DHT22;27407;24.142;-110.310;2023-03-14T20:02:17;35.10;41.30
41722;DHT22;27407;24.142;-110.310;2023-03-14T20:04:44;34.00;41.30
41722;DHT22;27407;24.142;-110.310;2023-03-14T20:07:12;36.10;44.80
41722;DHT22;27407;24.142;-110.310;2023-03-14T20:09:39;35.00;47.60
41722;DHT22;27407;24.142;-110.310;2023-03-14T20:12:07;34.60;48.40
41722;DHT22;27407;24.142;-110.310;2023-03-14T20:14:34;35.40;49.40
41722;DHT22;27407;24.142;-110.310;2023-03-14T20:17:01;33.80;47.70
41722;DHT22;27407;24.142;-110.310;2023-03-14T20:19:28;34.30;50.20
41722;DHT22;27407;24.142;-110.310;2023-03-14T20:21:54;33.90;47.50
41722;DHT22;27407;24.142;-110.310;2023-03-14T20:26:48;35.50;49.20
41722;DHT22;27407;24.142;-110.310;2023-03-14T20:29:21;34.40;47.60
41722;DHT22;27407;24.142;-110.310;2023-03-14T20:31:48;34.90;47.20
41722;DHT22;27407;24.142;-110.310;2023-03-14T20:34:15;40.10;51.20
41722;DHT22;27407;24.142;-110.310;2023-03-14T20:36:42;33.80;47.70
41722;DHT22;27407;24.142;-110.310;2023-03-14T20:39:09;34.60;48.30
41722;DHT22;27407;24.142;-110.310;2023-03-14T20:41:39;35.70;49.30
41722;DHT22;27407;24.142;-110.310;2023-03-14T20:44:08;34.00;47.90
41722;DHT22;27407;24.142;-110.310;2023-03-14T20:46:37;36.60;45.10
41722;DHT22;27407;24.142;-110.310;2023-03-14T20:49:03;37.10;40.90
41722;DHT22;27407;24.142;-110.310;2023-03-14T20:51:30;35.80;42.20
41722;DHT22;27407;24.142;-110.310;2023-03-14T20:53:57;35.20;40.20
41722;DHT22;27407;24.142;-110.310;2023-03-14T20:56:24;37.00;40.30
41722;DHT22;27407;24.142;-110.310;2023-03-14T21:01:17;36.60;41.20
41722;DHT22;27407;24.142;-110.310;2023-03-14T21:03:44;38.30;43.40
41722;DHT22;27407;24.142;-110.310;2023-03-14T21:06:11;36.20;40.10
41722;DHT22;27407;24.142;-110.310;2023-03-14T21:08:38;37.20;40.00
41722;DHT22;27407;24.142;-110.310;2023-03-14T21:11:06;35.60;40.30
41722;DHT22;27407;24.142;-110.310;2023-03-14T21:13:33;36.20;39.70
41722;DHT22;27407;24.142;-110.310;2023-03-14T21:16:03;35.90;40.10
41722;DHT22;27407;24.142;-110.310;2023-03-14T21:18:30;35.50;39.50
41722;DHT22;27407;24.142;-110.310;2023-03-14T21:20:56;36.60;39.90
41722;DHT22;27407;24.142;-110.310;2023-03-14T21:23:23;37.80;39.40
41722;DHT22;27407;24.142;-110.310;2023-03-14T21:25:53;39.40;38.40
41722;DHT22;27407;24.142;-110.310;2023-03-14T21:28:22;39.40;40.30